sensor_id;sensor_type;location;lat;lon;timestamp;pressure;altitude;pressure_sealevel;temperature;humidity
43711;BME280;29309;42.682;23.372;2023-02-08T00:00:33;96744.84;;;-3.86;64.79
43711;BME280;29309;42.682;23.372;2023-02-08T00:02:58;96745.88;;;-3.84;65.37
43711;BME280;29309;42.682;23.372;2023-02-08T00:05:24;96753.78;;;-3.80;65.25
43711;BME280;29309;42.682;23.372;2023-02-08T00:07:49;96744.91;;;-3.81;65.03
43711;BME280;29309;42.682;23.372;2023-02-08T00:10:15;96754.78;;;-3.78;64.93
43711;BME280;29309;42.682;23.372;2023-02-08T00:12:40;96758.25;;;-3.72;64.82
43711;BME280;29309;42.682;23.372;2023-02-08T00:15:06;96759.75;;;-3.71;64.68
43711;BME280;29309;42.682;23.372;2023-02-08T00:17:31;96763.44;;;-3.68;64.46
43711;BME280;29309;42.682;23.372;2023-02-08T00:19:57;96762.94;;;-3.72;64.47
43711;BME280;29309;42.682;23.372;2023-02-08T00:22:22;96764.41;;;-3.71;64.32
43711;BME280;29309;42.682;23.372;2023-02-08T00:24:49;96765.16;;;-3.71;64.81
43711;BME280;29309;42.682;23.372;2023-02-08T00:27:16;96766.66;;;-3.70;64.53
43711;BME280;29309;42.682;23.372;2023-02-08T00:29:41;96766.16;;;-3.68;64.52
43711;BME280;29309;42.682;23.372;2023-02-08T00:32:07;96776.31;;;-3.63;64.17
43711;BME280;29309;42.682;23.372;2023-02-08T00:34:32;96776.06;;;-3.60;64.44
43711;BME280;29309;42.682;23.372;2023-02-08T00:36:59;96773.59;;;-3.58;64.29
43711;BME280;29309;42.682;23.372;2023-02-08T00:39:25;96786.72;;;-3.51;63.63
43711;BME280;29309;42.682;23.372;2023-02-08T00:41:50;96786.72;;;-3.51;63.54
43711;BME280;29309;42.682;23.372;2023-02-08T00:44:16;96790.41;;;-3.54;64.08
43711;BME280;29309;42.682;23.372;2023-02-08T00:46:41;96792.13;;;-3.56;64.15
43711;BME280;29309;42.682;23.372;2023-02-08T00:49:07;96793.13;;;-3.54;63.54
43711;BME280;29309;42.682;23.372;2023-02-08T00:51:32;96791.44;;;-3.51;63.85
43711;BME280;29309;42.682;23.372;2023-02-08T00:53:58;96791.44;;;-3.51;63.51
43711;BME280;29309;42.682;23.372;2023-02-08T00:56:23;96790.41;;;-3.54;64.36
43711;BME280;29309;42.682;23.372;2023-02-08T00:58:48;96793.34;;;-3.57;64.16
43711;BME280;29309;42.682;23.372;2023-02-08T01:01:14;96792.38;;;-3.60;65.24
43711;BME280;29309;42.682;23.372;2023-02-08T01:03:41;96802.00;;;-3.53;64.28
43711;BME280;29309;42.682;23.372;2023-02-08T01:06:10;96805.22;;;-3.55;63.88
43711;BME280;29309;42.682;23.372;2023-02-08T01:08:35;96801.03;;;-3.50;64.55
43711;BME280;29309;42.682;23.372;2023-02-08T01:11:10;96799.56;;;-3.51;64.45
43711;BME280;29309;42.682;23.372;2023-02-08T01:13:36;96802.31;;;-3.45;63.85
43711;BME280;29309;42.682;23.372;2023-02-08T01:18:35;96793.63;;;-3.50;63.69
43711;BME280;29309;42.682;23.372;2023-02-08T01:21:05;96799.34;;;-3.47;64.53
43711;BME280;29309;42.682;23.372;2023-02-08T01:23:31;96789.94;;;-3.47;64.38
43711;BME280;29309;42.682;23.372;2023-02-08T01:25:56;96789.44;;;-3.51;64.58
43711;BME280;29309;42.682;23.372;2023-02-08T01:28:21;96782.03;;;-3.50;64.40
43711;BME280;29309;42.682;23.372;2023-02-08T01:30:47;96788.47;;;-3.47;64.62
43711;BME280;29309;42.682;23.372;2023-02-08T01:33:12;96792.66;;;-3.47;64.39
43711;BME280;29309;42.682;23.372;2023-02-08T01:35:38;96786.53;;;-3.41;64.22
43711;BME280;29309;42.682;23.372;2023-02-08T01:38:03;96792.47;;;-3.37;63.79
43711;BME280;29309;42.682;23.372;2023-02-08T01:40:28;96792.47;;;-3.37;64.00
43711;BME280;29309;42.682;23.372;2023-02-08T01:42:54;96793.69;;;-3.38;64.22
43711;BME280;29309;42.682;23.372;2023-02-08T01:45:28;96801.84;;;-3.38;64.43
43711;BME280;29309;42.682;23.372;2023-02-08T01:47:59;96802.31;;;-3.40;64.41
43711;BME280;29309;42.682;23.372;2023-02-08T01:50:30;96799.34;;;-3.47;64.25
43711;BME280;29309;42.682;23.372;2023-02-08T01:52:58;96798.38;;;-3.44;65.10
43711;BME280;29309;42.682;23.372;2023-02-08T01:55:27;96801.06;;;-3.44;64.91
43711;BME280;29309;42.682;23.372;2023-02-08T01:57:56;96801.31;;;-3.42;64.84
43711;BME280;29309;42.682;23.372;2023-02-08T02:00:24;96806.00;;;-3.43;65.05
43711;BME280;29309;42.682;23.372;2023-02-08T02:02:52;96805.03;;;-3.40;64.99
43711;BME280;29309;42.682;23.372;2023-02-08T02:05:19;96811.72;;;-3.35;64.70
43711;BME280;29309;42.682;23.372;2023-02-08T02:07:46;96808.25;;;-3.36;65.29
43711;BME280;29309;42.682;23.372;2023-02-08T02:10:17;96814.72;;;-3.33;64.75
43711;BME280;29309;42.682;23.372;2023-02-08T02:12:46;96814.44;;;-3.35;64.92
43711;BME280;29309;42.682;23.372;2023-02-08T02:15:12;96814.94;;;-3.31;64.93
43711;BME280;29309;42.682;23.372;2023-02-08T02:17:38;96821.59;;;-3.32;64.93
43711;BME280;29309;42.682;23.372;2023-02-08T02:20:13;96825.81;;;-3.31;64.77
43711;BME280;29309;42.682;23.372;2023-02-08T02:23:29;96828.00;;;-3.35;64.67
43711;BME280;29309;42.682;23.372;2023-02-08T02:47:23;96851.09;;;-3.57;67.19
43711;BME280;29309;42.682;23.372;2023-02-08T02:49:53;96848.38;;;-3.57;67.54
43711;BME280;29309;42.682;23.372;2023-02-08T02:52:45;96856.53;;;-3.57;67.40
43711;BME280;29309;42.682;23.372;2023-02-08T02:55:16;96854.78;;;-3.60;67.42
43711;BME280;29309;42.682;23.372;2023-02-08T02:57:43;96849.06;;;-3.62;67.95
43711;BME280;29309;42.682;23.372;2023-02-08T03:00:19;96850.56;;;-3.61;68.04
43711;BME280;29309;42.682;23.372;2023-02-08T03:02:46;96844.41;;;-3.61;68.28
43711;BME280;29309;42.682;23.372;2023-02-08T03:05:12;96847.38;;;-3.59;68.14
43711;BME280;29309;42.682;23.372;2023-02-08T03:10:38;96857.50;;;-3.60;68.26
43711;BME280;29309;42.682;23.372;2023-02-08T03:13:26;96852.31;;;-3.58;68.54
43711;BME280;29309;42.682;23.372;2023-02-08T03:18:41;96860.47;;;-3.58;68.34
43711;BME280;29309;42.682;23.372;2023-02-08T03:21:15;96852.03;;;-3.65;67.99
43711;BME280;29309;42.682;23.372;2023-02-08T03:31:50;96845.53;;;-3.79;68.27
43711;BME280;29309;42.682;23.372;2023-02-08T03:34:30;96850.41;;;-3.83;68.23
43711;BME280;29309;42.682;23.372;2023-02-08T03:37:06;96851.63;;;-3.89;68.04
43711;BME280;29309;42.682;23.372;2023-02-08T03:39:34;96846.41;;;-3.93;69.08
43711;BME280;29309;42.682;23.372;2023-02-08T03:42:05;96851.84;;;-3.93;68.66
43711;BME280;29309;42.682;23.372;2023-02-08T03:44:44;96852.59;;;-3.92;68.92
43711;BME280;29309;42.682;23.372;2023-02-08T03:47:16;96849.34;;;-3.97;68.82
43711;BME280;29309;42.682;23.372;2023-02-08T03:49:44;96858.19;;;-4.02;68.15
43711;BME280;29309;42.682;23.372;2023-02-08T03:52:13;96857.91;;;-4.04;68.57
43711;BME280;29309;42.682;23.372;2023-02-08T03:54:43;96860.84;;;-4.07;68.51
43711;BME280;29309;42.682;23.372;2023-02-08T03:59:49;96867.25;;;-4.10;68.47
43711;BME280;29309;42.682;23.372;2023-02-08T04:02:19;96867.91;;;-4.15;68.98
43711;BME280;29309;42.682;23.372;2023-02-08T04:04:48;96872.34;;;-4.18;68.95
43711;BME280;29309;42.682;23.372;2023-02-08T04:07:18;96879.53;;;-4.15;69.53
43711;BME280;29309;42.682;23.372;2023-02-08T04:09:44;96874.81;;;-4.20;69.68
43711;BME280;29309;42.682;23.372;2023-02-08T04:12:09;96882.19;;;-4.20;70.32
43711;BME280;29309;42.682;23.372;2023-02-08T04:14:35;96884.63;;;-4.22;70.01
43711;BME280;29309;42.682;23.372;2023-02-08T04:17:01;96882.88;;;-4.25;70.13
43711;BME280;29309;42.682;23.372;2023-02-08T04:19:26;96881.66;;;-4.24;69.91
43711;BME280;29309;42.682;23.372;2023-02-08T04:21:52;96880.38;;;-4.29;69.88
43711;BME280;29309;42.682;23.372;2023-02-08T04:24:18;96882.03;;;-4.37;69.63
43711;BME280;29309;42.682;23.372;2023-02-08T04:26:44;96879.31;;;-4.37;69.78
43711;BME280;29309;42.682;23.372;2023-02-08T04:29:10;96881.97;;;-4.42;69.91
43711;BME280;29309;42.682;23.372;2023-02-08T04:31:35;96886.13;;;-4.47;69.72
43711;BME280;29309;42.682;23.372;2023-02-08T04:34:00;96874.28;;;-4.50;69.68
43711;BME280;29309;42.682;23.372;2023-02-08T04:36:27;96886.31;;;-4.51;69.81
43711;BME280;29309;42.682;23.372;2023-02-08T04:38:52;96888.25;;;-4.57;69.65
43711;BME280;29309;42.682;23.372;2023-02-08T04:41:19;96887.72;;;-4.61;70.20
43711;BME280;29309;42.682;23.372;2023-02-08T04:43:44;96892.13;;;-4.63;70.33
43711;BME280;29309;42.682;23.372;2023-02-08T04:46:10;96891.84;;;-4.65;69.97
43711;BME280;29309;42.682;23.372;2023-02-08T04:48:36;96894.72;;;-4.74;69.91
43711;BME280;29309;42.682;23.372;2023-02-08T04:51:01;96909.25;;;-4.72;70.07
43711;BME280;29309;42.682;23.372;2023-02-08T04:53:27;96904.31;;;-4.73;70.13
43711;BME280;29309;42.682;23.372;2023-02-08T04:55:52;96907.41;;;-4.80;69.54
43711;BME280;29309;42.682;23.372;2023-02-08T04:58:18;96917.25;;;-4.83;69.50
43711;BME280;29309;42.682;23.372;2023-02-08T05:00:44;96922.13;;;-4.87;69.62
43711;BME280;29309;42.682;23.372;2023-02-08T05:03:09;96931.41;;;-4.93;70.24
43711;BME280;29309;42.682;23.372;2023-02-08T05:05:34;96933.81;;;-4.96;69.77
43711;BME280;29309;42.682;23.372;2023-02-08T05:08:00;96941.22;;;-4.96;69.83
43711;BME280;29309;42.682;23.372;2023-02-08T05:10:26;96943.66;;;-4.98;70.41
43711;BME280;29309;42.682;23.372;2023-02-08T05:12:51;96939.44;;;-4.99;70.42
43711;BME280;29309;42.682;23.372;2023-02-08T05:15:17;96941.13;;;-5.02;70.04
43711;BME280;29309;42.682;23.372;2023-02-08T05:17:42;96945.00;;;-5.08;69.76
43711;BME280;29309;42.682;23.372;2023-02-08T05:20:08;96950.16;;;-5.10;69.71
43711;BME280;29309;42.682;23.372;2023-02-08T05:22:34;96939.72;;;-5.17;69.78
43711;BME280;29309;42.682;23.372;2023-02-08T05:25:00;96955.66;;;-5.19;70.21
43711;BME280;29309;42.682;23.372;2023-02-08T05:27:25;96954.38;;;-5.24;70.52
43711;BME280;29309;42.682;23.372;2023-02-08T05:29:54;96949.44;;;-5.25;70.80
43711;BME280;29309;42.682;23.372;2023-02-08T05:32:19;96946.75;;;-5.25;70.41
43711;BME280;29309;42.682;23.372;2023-02-08T05:34:45;96953.34;;;-5.26;70.83
43711;BME280;29309;42.682;23.372;2023-02-08T05:37:10;96954.56;;;-5.27;70.63
43711;BME280;29309;42.682;23.372;2023-02-08T05:39:36;96956.25;;;-5.30;70.42
43711;BME280;29309;42.682;23.372;2023-02-08T05:42:02;96967.09;;;-5.30;70.94
43711;BME280;29309;42.682;23.372;2023-02-08T05:44:27;96970.53;;;-5.29;70.91
43711;BME280;29309;42.682;23.372;2023-02-08T05:46:53;96963.91;;;-5.28;70.97
43711;BME280;29309;42.682;23.372;2023-02-08T05:49:18;96968.59;;;-5.29;70.83
43711;BME280;29309;42.682;23.372;2023-02-08T05:51:44;96970.81;;;-5.27;70.63
43711;BME280;29309;42.682;23.372;2023-02-08T05:54:09;96974.75;;;-5.28;70.74
43711;BME280;29309;42.682;23.372;2023-02-08T05:56:35;96975.00;;;-5.26;71.12
43711;BME280;29309;42.682;23.372;2023-02-08T05:59:01;96970.81;;;-5.27;71.44
43711;BME280;29309;42.682;23.372;2023-02-08T06:01:27;96967.34;;;-5.28;71.27
43711;BME280;29309;42.682;23.372;2023-02-08T06:03:53;96956.97;;;-5.15;71.68
43711;BME280;29309;42.682;23.372;2023-02-08T06:06:19;96957.66;;;-5.00;71.77
43711;BME280;29309;42.682;23.372;2023-02-08T06:08:44;96964.25;;;-4.86;71.67
43711;BME280;29309;42.682;23.372;2023-02-08T06:11:10;96969.59;;;-4.71;71.58
43711;BME280;29309;42.682;23.372;2023-02-08T06:13:36;96962.19;;;-4.51;71.77
43711;BME280;29309;42.682;23.372;2023-02-08T06:16:03;96969.09;;;-4.29;71.07
43711;BME280;29309;42.682;23.372;2023-02-08T06:18:29;96965.41;;;-4.06;70.21
43711;BME280;29309;42.682;23.372;2023-02-08T06:20:54;96969.78;;;-3.83;69.71
43711;BME280;29309;42.682;23.372;2023-02-08T06:23:21;96976.22;;;-3.55;69.40
43711;BME280;29309;42.682;23.372;2023-02-08T06:25:46;96969.78;;;-3.26;68.94
43711;BME280;29309;42.682;23.372;2023-02-08T06:28:12;96974.88;;;-2.97;67.77
43711;BME280;29309;42.682;23.372;2023-02-08T06:30:37;96982.91;;;-2.71;67.23
43711;BME280;29309;42.682;23.372;2023-02-08T06:33:04;96989.91;;;-2.53;66.83
43711;BME280;29309;42.682;23.372;2023-02-08T06:35:29;96994.16;;;-2.46;66.53
43711;BME280;29309;42.682;23.372;2023-02-08T06:37:55;96994.41;;;-2.44;64.29
43711;BME280;29309;42.682;23.372;2023-02-08T06:40:20;96994.38;;;-2.56;62.57
43711;BME280;29309;42.682;23.372;2023-02-08T06:42:49;97003.91;;;-2.77;61.97
43711;BME280;29309;42.682;23.372;2023-02-08T06:45:15;97001.94;;;-3.13;62.86
43711;BME280;29309;42.682;23.372;2023-02-08T06:47:41;96995.38;;;-3.32;63.48
43711;BME280;29309;42.682;23.372;2023-02-08T06:50:07;96998.59;;;-3.34;63.93
43711;BME280;29309;42.682;23.372;2023-02-08T06:52:32;96997.41;;;-3.27;64.07
43711;BME280;29309;42.682;23.372;2023-02-08T06:55:17;97006.25;;;-2.95;63.17
43711;BME280;29309;42.682;23.372;2023-02-08T06:57:42;97008.03;;;-2.87;61.90
43711;BME280;29309;42.682;23.372;2023-02-08T07:00:08;96998.75;;;-2.64;61.39
43711;BME280;29309;42.682;23.372;2023-02-08T07:02:34;96998.16;;;-2.36;60.78
43711;BME280;29309;42.682;23.372;2023-02-08T07:04:59;97001.72;;;-2.03;59.94
43711;BME280;29309;42.682;23.372;2023-02-08T07:07:24;97002.06;;;-1.67;58.98
43711;BME280;29309;42.682;23.372;2023-02-08T07:09:50;97003.53;;;-1.44;58.01
43711;BME280;29309;42.682;23.372;2023-02-08T07:12:16;97015.69;;;-1.12;57.80
43711;BME280;29309;42.682;23.372;2023-02-08T07:14:42;97019.63;;;-0.85;58.38
43711;BME280;29309;42.682;23.372;2023-02-08T07:17:08;97033.19;;;-0.57;55.44
43711;BME280;29309;42.682;23.372;2023-02-08T07:19:34;97036.19;;;-0.66;53.86
43711;BME280;29309;42.682;23.372;2023-02-08T07:21:59;97035.19;;;-0.69;53.49
43711;BME280;29309;42.682;23.372;2023-02-08T07:24:29;97037.19;;;-0.75;53.07
43711;BME280;29309;42.682;23.372;2023-02-08T07:26:55;97037.97;;;-0.85;52.82
43711;BME280;29309;42.682;23.372;2023-02-08T07:29:20;97033.78;;;-1.03;53.77
43711;BME280;29309;42.682;23.372;2023-02-08T07:31:45;97027.81;;;-0.85;55.36
43711;BME280;29309;42.682;23.372;2023-02-08T07:34:11;97043.84;;;-0.48;54.38
43711;BME280;29309;42.682;23.372;2023-02-08T07:36:36;97042.03;;;-0.23;53.89
43711;BME280;29309;42.682;23.372;2023-02-08T07:39:02;97041.91;;;0.10;51.36
43711;BME280;29309;42.682;23.372;2023-02-08T07:41:28;97037.25;;;0.40;52.10
43711;BME280;29309;42.682;23.372;2023-02-08T07:43:53;97037.72;;;0.80;50.55
43711;BME280;29309;42.682;23.372;2023-02-08T07:46:20;97047.84;;;1.20;49.57
43711;BME280;29309;42.682;23.372;2023-02-08T07:48:46;97044.09;;;1.72;48.13
43711;BME280;29309;42.682;23.372;2023-02-08T07:51:16;97043.88;;;2.13;47.27
43711;BME280;29309;42.682;23.372;2023-02-08T07:53:42;97036.16;;;2.48;45.57
43711;BME280;29309;42.682;23.372;2023-02-08T07:56:07;97033.75;;;2.77;44.50
43711;BME280;29309;42.682;23.372;2023-02-08T07:58:34;97029.44;;;2.81;43.85
43711;BME280;29309;42.682;23.372;2023-02-08T08:01:00;97035.88;;;2.84;43.94
43711;BME280;29309;42.682;23.372;2023-02-08T08:03:25;97032.69;;;2.80;43.80
43711;BME280;29309;42.682;23.372;2023-02-08T08:05:51;97035.19;;;2.96;43.29
43711;BME280;29309;42.682;23.372;2023-02-08T08:08:17;97034.03;;;3.05;43.96
43711;BME280;29309;42.682;23.372;2023-02-08T08:10:42;97022.59;;;3.33;43.26
43711;BME280;29309;42.682;23.372;2023-02-08T08:13:09;97029.03;;;3.35;43.97
43711;BME280;29309;42.682;23.372;2023-02-08T08:15:34;97028.44;;;3.56;43.19
43711;BME280;29309;42.682;23.372;2023-02-08T08:18:00;97026.09;;;3.99;42.03
43711;BME280;29309;42.682;23.372;2023-02-08T08:20:25;97027.13;;;4.09;41.56
43711;BME280;29309;42.682;23.372;2023-02-08T08:22:51;97034.91;;;4.31;40.37
43711;BME280;29309;42.682;23.372;2023-02-08T08:25:16;97043.44;;;4.54;40.27
43711;BME280;29309;42.682;23.372;2023-02-08T08:27:42;97039.56;;;4.70;40.53
43711;BME280;29309;42.682;23.372;2023-02-08T08:30:10;97047.31;;;4.92;39.39
43711;BME280;29309;42.682;23.372;2023-02-08T08:32:36;97041.13;;;5.00;38.79
43711;BME280;29309;42.682;23.372;2023-02-08T08:35:03;97037.22;;;4.74;38.18
43711;BME280;29309;42.682;23.372;2023-02-08T08:37:29;97045.81;;;4.37;38.72
43711;BME280;29309;42.682;23.372;2023-02-08T08:39:55;97035.41;;;3.70;40.22
43711;BME280;29309;42.682;23.372;2023-02-08T08:42:20;97039.44;;;3.11;42.92
43711;BME280;29309;42.682;23.372;2023-02-08T08:44:46;97046.94;;;3.10;42.66
43711;BME280;29309;42.682;23.372;2023-02-08T08:47:12;97042.69;;;2.96;43.15
43711;BME280;29309;42.682;23.372;2023-02-08T08:49:38;97046.38;;;2.67;42.94
43711;BME280;29309;42.682;23.372;2023-02-08T08:52:03;97051.06;;;2.34;42.37
43711;BME280;29309;42.682;23.372;2023-02-08T08:54:32;97042.28;;;2.17;43.02
43711;BME280;29309;42.682;23.372;2023-02-08T08:56:58;97046.88;;;1.90;44.97
43711;BME280;29309;42.682;23.372;2023-02-08T08:59:23;97050.66;;;1.63;46.45
43711;BME280;29309;42.682;23.372;2023-02-08T09:01:49;97061.19;;;1.54;45.90
43711;BME280;29309;42.682;23.372;2023-02-08T09:04:14;97064.44;;;1.28;46.90
43711;BME280;29309;42.682;23.372;2023-02-08T09:06:40;97068.66;;;1.29;45.13
43711;BME280;29309;42.682;23.372;2023-02-08T09:09:05;97064.16;;;1.31;44.72
43711;BME280;29309;42.682;23.372;2023-02-08T09:11:31;97072.19;;;0.94;44.80
43711;BME280;29309;42.682;23.372;2023-02-08T09:13:58;97064.28;;;0.85;45.28
43711;BME280;29309;42.682;23.372;2023-02-08T09:16:23;97069.34;;;0.70;44.61
43711;BME280;29309;42.682;23.372;2023-02-08T09:18:49;97070.69;;;0.58;45.57
43711;BME280;29309;42.682;23.372;2023-02-08T09:21:17;97079.44;;;0.51;45.49
43711;BME280;29309;42.682;23.372;2023-02-08T09:23:43;97075.97;;;0.44;45.64
43711;BME280;29309;42.682;23.372;2023-02-08T09:26:12;97073.25;;;0.44;46.45
43711;BME280;29309;42.682;23.372;2023-02-08T09:28:38;97078.06;;;0.27;46.08
43711;BME280;29309;42.682;23.372;2023-02-08T09:31:28;97075.59;;;0.18;46.23
43711;BME280;29309;42.682;23.372;2023-02-08T09:33:55;97073.69;;;0.02;46.60
43711;BME280;29309;42.682;23.372;2023-02-08T09:36:23;97074.75;;;-0.18;47.29
43711;BME280;29309;42.682;23.372;2023-02-08T09:38:49;97071.56;;;-0.27;47.56
43711;BME280;29309;42.682;23.372;2023-02-08T09:41:20;97073.59;;;-0.44;48.67
43711;BME280;29309;42.682;23.372;2023-02-08T09:46:29;97066.94;;;-0.66;48.57
43711;BME280;29309;42.682;23.372;2023-02-08T09:48:59;97052.53;;;-0.61;49.34
43711;BME280;29309;42.682;23.372;2023-02-08T09:51:36;97063.44;;;-0.61;49.63
43711;BME280;29309;42.682;23.372;2023-02-08T09:54:09;97057.22;;;-0.44;49.38
43711;BME280;29309;42.682;23.372;2023-02-08T09:56:40;97052.31;;;-0.63;49.63
43711;BME280;29309;42.682;23.372;2023-02-08T09:59:14;97053.06;;;-0.68;49.40
43711;BME280;29309;42.682;23.372;2023-02-08T10:01:40;97053.59;;;-0.80;49.52
43711;BME280;29309;42.682;23.372;2023-02-08T10:04:20;97053.59;;;-0.91;49.98
43711;BME280;29309;42.682;23.372;2023-02-08T10:06:48;97050.84;;;-0.97;50.57
43711;BME280;29309;42.682;23.372;2023-02-08T10:09:14;97047.13;;;-0.94;50.75
43711;BME280;29309;42.682;23.372;2023-02-08T10:29:03;97036.28;;;-0.14;48.61
43711;BME280;29309;42.682;23.372;2023-02-08T10:37:17;97046.41;;;0.84;45.91
43711;BME280;29309;42.682;23.372;2023-02-08T10:39:44;97049.47;;;1.05;44.86
43711;BME280;29309;42.682;23.372;2023-02-08T10:42:20;97040.66;;;1.17;44.34
43711;BME280;29309;42.682;23.372;2023-02-08T10:47:17;97046.00;;;1.58;43.10
43711;BME280;29309;42.682;23.372;2023-02-08T10:50:14;97042.69;;;1.41;43.89
43711;BME280;29309;42.682;23.372;2023-02-08T10:52:43;97043.81;;;1.51;44.71
43711;BME280;29309;42.682;23.372;2023-02-08T10:55:17;97040.91;;;1.43;44.90
43711;BME280;29309;42.682;23.372;2023-02-08T10:57:45;97056.41;;;1.35;45.31
43711;BME280;29309;42.682;23.372;2023-02-08T11:00:19;97045.06;;;1.26;45.50
43711;BME280;29309;42.682;23.372;2023-02-08T11:02:45;97049.75;;;1.01;45.80
43711;BME280;29309;42.682;23.372;2023-02-08T11:05:34;97050.94;;;1.06;45.77
43711;BME280;29309;42.682;23.372;2023-02-08T11:10:33;97056.25;;;0.63;45.85
43711;BME280;29309;42.682;23.372;2023-02-08T11:13:16;97059.09;;;0.46;47.22
43711;BME280;29309;42.682;23.372;2023-02-08T11:15:46;97054.81;;;0.04;48.73
43711;BME280;29309;42.682;23.372;2023-02-08T11:20:47;97059.19;;;-0.34;50.31
43711;BME280;29309;42.682;23.372;2023-02-08T11:26:22;97056.72;;;-0.43;50.86
43711;BME280;29309;42.682;23.372;2023-02-08T11:32:01;97061.69;;;-0.47;50.83
43711;BME280;29309;42.682;23.372;2023-02-08T11:34:36;97064.66;;;-0.45;51.27
43711;BME280;29309;42.682;23.372;2023-02-08T11:37:22;97071.13;;;-0.54;50.00
43711;BME280;29309;42.682;23.372;2023-02-08T11:39:54;97060.47;;;-0.52;50.30
43711;BME280;29309;42.682;23.372;2023-02-08T11:42:23;97053.72;;;-0.39;50.02
43711;BME280;29309;42.682;23.372;2023-02-08T11:44:49;97053.28;;;-0.43;50.37
43711;BME280;29309;42.682;23.372;2023-02-08T11:47:17;97060.47;;;-0.57;50.41
43711;BME280;29309;42.682;23.372;2023-02-08T11:50:07;97056.78;;;-0.65;50.15
43711;BME280;29309;42.682;23.372;2023-02-08T11:52:53;97058.25;;;-0.64;49.79
43711;BME280;29309;42.682;23.372;2023-02-08T11:55:28;97067.19;;;-0.86;49.98
43711;BME280;29309;42.682;23.372;2023-02-08T12:00:25;97064.75;;;-0.95;50.08
43711;BME280;29309;42.682;23.372;2023-02-08T12:02:57;97075.16;;;-0.99;50.98
43711;BME280;29309;42.682;23.372;2023-02-08T12:05:37;97067.94;;;-0.96;52.05
43711;BME280;29309;42.682;23.372;2023-02-08T12:16:22;97065.94;;;-0.68;51.62
43711;BME280;29309;42.682;23.372;2023-02-08T12:19:26;97059.97;;;-0.56;50.52
43711;BME280;29309;42.682;23.372;2023-02-08T12:22:11;97060.22;;;-0.54;50.13
43711;BME280;29309;42.682;23.372;2023-02-08T12:25:13;97055.03;;;-0.52;49.17
43711;BME280;29309;42.682;23.372;2023-02-08T12:27:45;97055.50;;;-0.53;48.77
43711;BME280;29309;42.682;23.372;2023-02-08T12:30:35;97050.78;;;-0.47;48.49
43711;BME280;29309;42.682;23.372;2023-02-08T12:36:19;97050.31;;;-0.68;48.41
43711;BME280;29309;42.682;23.372;2023-02-08T12:39:02;97051.59;;;-0.85;48.58
43711;BME280;29309;42.682;23.372;2023-02-08T12:47:19;97057.28;;;-0.89;48.42
43711;BME280;29309;42.682;23.372;2023-02-08T12:52:50;97058.78;;;-0.93;48.27
43711;BME280;29309;42.682;23.372;2023-02-08T12:55:28;97056.28;;;-0.86;48.11
43711;BME280;29309;42.682;23.372;2023-02-08T12:58:13;97058.03;;;-0.83;47.01
43711;BME280;29309;42.682;23.372;2023-02-08T13:00:44;97056.81;;;-0.93;46.66
43711;BME280;29309;42.682;23.372;2023-02-08T13:03:32;97062.25;;;-1.04;46.28
43711;BME280;29309;42.682;23.372;2023-02-08T13:06:03;97070.44;;;-1.10;45.72
43711;BME280;29309;42.682;23.372;2023-02-08T13:08:31;97072.41;;;-1.10;46.22
43711;BME280;29309;42.682;23.372;2023-02-08T13:11:36;97077.34;;;-1.25;45.96
43711;BME280;29309;42.682;23.372;2023-02-08T13:16:52;97071.91;;;-1.14;48.02
43711;BME280;29309;42.682;23.372;2023-02-08T13:19:41;97084.31;;;-1.13;46.76
43711;BME280;29309;42.682;23.372;2023-02-08T13:22:13;97081.81;;;-1.11;46.94
43711;BME280;29309;42.682;23.372;2023-02-08T13:24:43;97085.31;;;-1.05;46.87
43711;BME280;29309;42.682;23.372;2023-02-08T13:27:21;97079.38;;;-1.09;46.76
43711;BME280;29309;42.682;23.372;2023-02-08T13:29:50;97088.28;;;-1.14;46.73
43711;BME280;29309;42.682;23.372;2023-02-08T13:32:26;97083.81;;;-1.12;47.29
43711;BME280;29309;42.682;23.372;2023-02-08T13:37:26;97093.22;;;-1.18;48.26
43711;BME280;29309;42.682;23.372;2023-02-08T13:42:29;97088.50;;;-1.34;48.42
43711;BME280;29309;42.682;23.372;2023-02-08T13:44:57;97097.63;;;-1.37;49.48
43711;BME280;29309;42.682;23.372;2023-02-08T13:47:26;97093.94;;;-1.34;49.99
43711;BME280;29309;42.682;23.372;2023-02-08T13:49:56;97106.81;;;-1.40;50.05
43711;BME280;29309;42.682;23.372;2023-02-08T13:52:49;97107.72;;;-1.71;50.06
43711;BME280;29309;42.682;23.372;2023-02-08T13:58:24;97098.53;;;-1.85;50.62
43711;BME280;29309;42.682;23.372;2023-02-08T14:05:59;97100.50;;;-1.80;50.44
43711;BME280;29309;42.682;23.372;2023-02-08T14:08:55;97102.25;;;-1.77;50.72
43711;BME280;29309;42.682;23.372;2023-02-08T14:11:40;97107.72;;;-1.71;50.87
43711;BME280;29309;42.682;23.372;2023-02-08T14:14:17;97112.41;;;-1.72;51.18
43711;BME280;29309;42.682;23.372;2023-02-08T14:16:45;97112.94;;;-1.68;51.46
43711;BME280;29309;42.682;23.372;2023-02-08T14:21:48;97112.63;;;-1.81;52.53
43711;BME280;29309;42.682;23.372;2023-02-08T14:24:27;97114.13;;;-1.85;52.60
43711;BME280;29309;42.682;23.372;2023-02-08T14:27:19;97117.31;;;-1.92;52.78
43711;BME280;29309;42.682;23.372;2023-02-08T14:29:57;97120.03;;;-1.92;52.78
43711;BME280;29309;42.682;23.372;2023-02-08T14:32:25;97118.53;;;-1.88;53.47
43711;BME280;29309;42.682;23.372;2023-02-08T14:37:36;97109.63;;;-1.94;54.68
43711;BME280;29309;42.682;23.372;2023-02-08T14:45:28;97112.16;;;-2.27;54.92
43711;BME280;29309;42.682;23.372;2023-02-08T14:53:38;97117.66;;;-2.22;54.65
43711;BME280;29309;42.682;23.372;2023-02-08T14:56:23;97126.00;;;-2.31;55.36
43711;BME280;29309;42.682;23.372;2023-02-08T14:58:58;97120.53;;;-2.36;55.46
43711;BME280;29309;42.682;23.372;2023-02-08T15:03:55;97125.13;;;-2.85;57.63
43711;BME280;29309;42.682;23.372;2023-02-08T15:11:30;97141.16;;;-3.44;59.96
43711;BME280;29309;42.682;23.372;2023-02-08T15:13:58;97138.47;;;-3.64;59.52
43711;BME280;29309;42.682;23.372;2023-02-08T15:16:39;97139.84;;;-3.74;59.98
43711;BME280;29309;42.682;23.372;2023-02-08T15:19:07;97143.47;;;-3.57;59.77
43711;BME280;29309;42.682;23.372;2023-02-08T15:21:34;97134.88;;;-3.56;59.11
43711;BME280;29309;42.682;23.372;2023-02-08T15:24:22;97144.91;;;-3.62;59.16
43711;BME280;29309;42.682;23.372;2023-02-08T15:26:53;97154.75;;;-3.64;59.65